sensor_id;sensor_type;location;lat;lon;timestamp;pressure;altitude;pressure_sealevel;temperature;humidity
58239;BME280;44037;55.638;37.356;2023-09-12T00:01:03;99494.19;;;10.92;100.00
58239;BME280;44037;55.638;37.356;2023-09-12T00:03:32;99488.13;;;10.88;100.00
58239;BME280;44037;55.638;37.356;2023-09-12T00:06:01;99495.91;;;10.87;100.00
58239;BME280;44037;55.638;37.356;2023-09-12T00:08:28;99495.88;;;10.84;100.00
58239;BME280;44037;55.638;37.356;2023-09-12T00:10:59;99492.41;;;10.82;100.00
58239;BME280;44037;55.638;37.356;2023-09-12T00:13:29;99494.09;;;10.80;100.00
58239;BME280;44037;55.638;37.356;2023-09-12T00:15:56;99490.63;;;10.78;100.00
58239;BME280;44037;55.638;37.356;2023-09-12T00:18:24;99494.97;;;10.75;100.00
58239;BME280;44037;55.638;37.356;2023-09-12T00:20:51;99498.38;;;10.73;100.00
58239;BME280;44037;55.638;37.356;2023-09-12T00:23:18;99500.13;;;10.71;100.00
58239;BME280;44037;55.638;37.356;2023-09-12T00:25:45;99494.91;;;10.68;100.00
58239;BME280;44037;55.638;37.356;2023-09-12T00:28:12;99493.19;;;10.67;100.00
58239;BME280;44037;55.638;37.356;2023-09-12T00:30:41;99495.75;;;10.65;100.00
58239;BME280;44037;55.638;37.356;2023-09-12T00:33:07;99492.31;;;10.65;100.00
58239;BME280;44037;55.638;37.356;2023-09-12T00:35:34;99502.66;;;10.63;100.00
58239;BME280;44037;55.638;37.356;2023-09-12T00:38:02;99512.16;;;10.63;100.00
58239;BME280;44037;55.638;37.356;2023-09-12T00:40:29;99501.75;;;10.59;100.00
58239;BME280;44037;55.638;37.356;2023-09-12T00:42:56;99508.69;;;10.57;100.00
58239;BME280;44037;55.638;37.356;2023-09-12T00:45:23;99508.66;;;10.54;100.00
58239;BME280;44037;55.638;37.356;2023-09-12T00:47:52;99504.31;;;10.53;100.00
58239;BME280;44037;55.638;37.356;2023-09-12T00:50:21;99506.88;;;10.50;100.00
58239;BME280;44037;55.638;37.356;2023-09-12T00:52:49;99503.44;;;10.51;100.00
58239;BME280;44037;55.638;37.356;2023-09-12T00:55:16;99501.69;;;10.50;100.00
58239;BME280;44037;55.638;37.356;2023-09-12T00:57:45;99512.06;;;10.50;100.00
58239;BME280;44037;55.638;37.356;2023-09-12T01:00:13;99516.38;;;10.50;100.00
58239;BME280;44037;55.638;37.356;2023-09-12T01:02:41;99516.34;;;10.48;100.00
58239;BME280;44037;55.638;37.356;2023-09-12T01:05:14;99524.13;;;10.47;100.00
58239;BME280;44037;55.638;37.356;2023-09-12T01:07:43;99531.00;;;10.46;100.00
58239;BME280;44037;55.638;37.356;2023-09-12T01:10:10;99530.16;;;10.45;100.00
58239;BME280;44037;55.638;37.356;2023-09-12T01:12:37;99533.59;;;10.43;100.00
58239;BME280;44037;55.638;37.356;2023-09-12T01:15:05;99524.06;;;10.40;100.00
58239;BME280;44037;55.638;37.356;2023-09-12T01:17:41;99528.31;;;10.37;100.00
58239;BME280;44037;55.638;37.356;2023-09-12T01:20:14;99524.84;;;10.33;100.00
58239;BME280;44037;55.638;37.356;2023-09-12T01:26:01;99529.09;;;10.26;100.00
58239;BME280;44037;55.638;37.356;2023-09-12T01:28:40;99523.03;;;10.23;100.00
58239;BME280;44037;55.638;37.356;2023-09-12T01:31:09;99529.94;;;10.22;100.00
58239;BME280;44037;55.638;37.356;2023-09-12T01:33:36;99529.91;;;10.21;100.00
58239;BME280;44037;55.638;37.356;2023-09-12T01:36:04;99527.34;;;10.19;100.00
58239;BME280;44037;55.638;37.356;2023-09-12T01:38:31;99532.47;;;10.16;100.00
58239;BME280;44037;55.638;37.356;2023-09-12T01:40:58;99527.25;;;10.13;100.00
58239;BME280;44037;55.638;37.356;2023-09-12T01:43:27;99530.69;;;10.12;100.00
58239;BME280;44037;55.638;37.356;2023-09-12T01:45:57;99536.72;;;10.09;100.00
58239;BME280;44037;55.638;37.356;2023-09-12T01:48:26;99534.13;;;10.08;100.00
58239;BME280;44037;55.638;37.356;2023-09-12T01:50:59;99534.94;;;10.05;100.00
58239;BME280;44037;55.638;37.356;2023-09-12T01:53:26;99528.91;;;10.05;100.00
58239;BME280;44037;55.638;37.356;2023-09-12T01:55:56;99532.38;;;10.04;100.00
58239;BME280;44037;55.638;37.356;2023-09-12T01:58:25;99532.38;;;10.04;100.00
58239;BME280;44037;55.638;37.356;2023-09-12T02:00:52;99544.41;;;10.02;100.00
58239;BME280;44037;55.638;37.356;2023-09-12T02:03:21;99541.81;;;10.00;100.00
58239;BME280;44037;55.638;37.356;2023-09-12T02:05:48;99541.78;;;9.97;100.00
58239;BME280;44037;55.638;37.356;2023-09-12T02:08:15;99546.06;;;9.95;100.00
58239;BME280;44037;55.638;37.356;2023-09-12T02:10:42;99551.25;;;9.93;100.00
58239;BME280;44037;55.638;37.356;2023-09-12T02:13:09;99552.94;;;9.91;100.00
58239;BME280;44037;55.638;37.356;2023-09-12T02:15:36;99551.22;;;9.90;100.00
58239;BME280;44037;55.638;37.356;2023-09-12T02:18:04;99563.25;;;9.88;100.00
58239;BME280;44037;55.638;37.356;2023-09-12T02:20:32;99561.53;;;9.87;100.00
58239;BME280;44037;55.638;37.356;2023-09-12T02:22:59;99556.31;;;9.84;100.00
58239;BME280;44037;55.638;37.356;2023-09-12T02:25:26;99559.75;;;9.83;100.00
58239;BME280;44037;55.638;37.356;2023-09-12T02:27:53;99558.03;;;9.82;100.00
58239;BME280;44037;55.638;37.356;2023-09-12T02:30:20;99555.44;;;9.82;100.00
58239;BME280;44037;55.638;37.356;2023-09-12T02:32:48;99556.28;;;9.82;100.00
58239;BME280;44037;55.638;37.356;2023-09-12T02:35:15;99566.66;;;9.82;100.00
58239;BME280;44037;55.638;37.356;2023-09-12T02:37:43;99567.50;;;9.83;100.00
58239;BME280;44037;55.638;37.356;2023-09-12T02:40:10;99567.50;;;9.83;100.00
58239;BME280;44037;55.638;37.356;2023-09-12T02:42:39;99577.00;;;9.84;100.00
58239;BME280;44037;55.638;37.356;2023-09-12T02:45:07;99572.72;;;9.84;100.00
58239;BME280;44037;55.638;37.356;2023-09-12T02:47:34;99571.81;;;9.84;100.00
58239;BME280;44037;55.638;37.356;2023-09-12T02:50:01;99576.16;;;9.83;100.00
58239;BME280;44037;55.638;37.356;2023-09-12T02:52:31;99583.91;;;9.85;100.00
58239;BME280;44037;55.638;37.356;2023-09-12T02:54:59;99578.75;;;9.85;100.00
58239;BME280;44037;55.638;37.356;2023-09-12T02:57:26;99577.00;;;9.84;100.00
58239;BME280;44037;55.638;37.356;2023-09-12T02:59:53;99570.97;;;9.83;100.00
58239;BME280;44037;55.638;37.356;2023-09-12T03:02:20;99578.75;;;9.85;100.00
58239;BME280;44037;55.638;37.356;2023-09-12T03:04:47;99576.16;;;9.83;100.00
58239;BME280;44037;55.638;37.356;2023-09-12T03:07:14;99576.16;;;9.83;100.00
58239;BME280;44037;55.638;37.356;2023-09-12T03:09:41;99570.97;;;9.83;100.00
58239;BME280;44037;55.638;37.356;2023-09-12T03:12:10;99570.97;;;9.82;100.00
58239;BME280;44037;55.638;37.356;2023-09-12T03:14:37;99572.69;;;9.83;100.00
58239;BME280;44037;55.638;37.356;2023-09-12T03:17:04;99574.41;;;9.84;100.00
58239;BME280;44037;55.638;37.356;2023-09-12T03:19:31;99577.03;;;9.87;100.00
58239;BME280;44037;55.638;37.356;2023-09-12T03:21:58;99579.66;;;9.90;100.00
58239;BME280;44037;55.638;37.356;2023-09-12T03:24:25;99580.59;;;9.95;100.00
58239;BME280;44037;55.638;37.356;2023-09-12T03:26:54;99585.81;;;10.00;100.00
58239;BME280;44037;55.638;37.356;2023-09-12T03:29:23;99578.06;;;10.03;100.00
58239;BME280;44037;55.638;37.356;2023-09-12T03:31:50;99577.25;;;10.06;100.00
58239;BME280;44037;55.638;37.356;2023-09-12T03:34:17;99572.09;;;10.09;100.00
58239;BME280;44037;55.638;37.356;2023-09-12T03:36:44;99585.94;;;10.12;100.00
58239;BME280;44037;55.638;37.356;2023-09-12T03:39:11;99583.41;;;10.17;100.00
58239;BME280;44037;55.638;37.356;2023-09-12T03:41:38;99581.72;;;10.21;100.00
58239;BME280;44037;55.638;37.356;2023-09-12T03:44:06;99582.59;;;10.24;100.00
58239;BME280;44037;55.638;37.356;2023-09-12T03:46:35;99581.78;;;10.30;100.00
58239;BME280;44037;55.638;37.356;2023-09-12T03:49:02;99578.38;;;10.34;100.00
58239;BME280;44037;55.638;37.356;2023-09-12T03:51:29;99581.94;;;10.39;100.00
58239;BME280;44037;55.638;37.356;2023-09-12T03:53:56;99583.66;;;10.43;100.00
58239;BME280;44037;55.638;37.356;2023-09-12T03:56:23;99588.03;;;10.48;100.00
58239;BME280;44037;55.638;37.356;2023-09-12T03:58:50;99578.56;;;10.53;100.00
58239;BME280;44037;55.638;37.356;2023-09-12T04:01:17;99583.81;;;10.59;100.00
58239;BME280;44037;55.638;37.356;2023-09-12T04:03:45;99589.91;;;10.66;100.00
58239;BME280;44037;55.638;37.356;2023-09-12T04:06:13;99588.22;;;10.72;100.00
58239;BME280;44037;55.638;37.356;2023-09-12T04:08:40;99579.63;;;10.80;100.00
58239;BME280;44037;55.638;37.356;2023-09-12T04:11:07;99585.72;;;10.86;100.00
58239;BME280;44037;55.638;37.356;2023-09-12T04:13:34;99586.63;;;10.91;100.00
58239;BME280;44037;55.638;37.356;2023-09-12T04:16:01;99595.31;;;11.00;100.00
58239;BME280;44037;55.638;37.356;2023-09-12T04:18:28;99592.75;;;11.04;100.00
58239;BME280;44037;55.638;37.356;2023-09-12T04:20:56;99599.72;;;11.09;100.00
58239;BME280;44037;55.638;37.356;2023-09-12T04:23:24;99605.78;;;11.12;100.00
58239;BME280;44037;55.638;37.356;2023-09-12T04:25:51;99605.81;;;11.17;100.00
58239;BME280;44037;55.638;37.356;2023-09-12T04:28:18;99602.38;;;11.22;100.00
58239;BME280;44037;55.638;37.356;2023-09-12T04:30:45;99603.28;;;11.28;100.00
58239;BME280;44037;55.638;37.356;2023-09-12T04:33:12;99607.63;;;11.33;100.00
58239;BME280;44037;55.638;37.356;2023-09-12T04:35:39;99605.94;;;11.40;100.00
58239;BME280;44037;55.638;37.356;2023-09-12T04:38:07;99612.03;;;11.45;100.00
58239;BME280;44037;55.638;37.356;2023-09-12T04:40:35;99609.44;;;11.51;100.00
58239;BME280;44037;55.638;37.356;2023-09-12T04:43:02;99601.72;;;11.58;100.00
58239;BME280;44037;55.638;37.356;2023-09-12T04:45:29;99606.91;;;11.64;100.00
58239;BME280;44037;55.638;37.356;2023-09-12T04:47:56;99604.34;;;11.70;100.00
58239;BME280;44037;55.638;37.356;2023-09-12T04:50:23;99608.69;;;11.76;100.00
58239;BME280;44037;55.638;37.356;2023-09-12T04:52:50;99607.84;;;11.81;100.00
58239;BME280;44037;55.638;37.356;2023-09-12T04:55:18;99608.75;;;11.88;100.00
58239;BME280;44037;55.638;37.356;2023-09-12T04:57:45;99613.09;;;11.94;100.00
58239;BME280;44037;55.638;37.356;2023-09-12T05:00:13;99610.56;;;12.02;100.00
58239;BME280;44037;55.638;37.356;2023-09-12T05:02:40;99607.97;;;12.11;100.00
58239;BME280;44037;55.638;37.356;2023-09-12T05:05:07;99607.09;;;12.18;100.00
58239;BME280;44037;55.638;37.356;2023-09-12T05:07:34;99609.72;;;12.26;100.00
58239;BME280;44037;55.638;37.356;2023-09-12T05:10:01;99601.94;;;12.31;100.00
58239;BME280;44037;55.638;37.356;2023-09-12T05:12:31;99608.88;;;12.36;100.00
58239;BME280;44037;55.638;37.356;2023-09-12T05:14:58;99607.16;;;12.46;100.00
58239;BME280;44037;55.638;37.356;2023-09-12T05:17:25;99613.25;;;12.59;100.00
58239;BME280;44037;55.638;37.356;2023-09-12T05:19:52;99615.81;;;12.70;100.00
58239;BME280;44037;55.638;37.356;2023-09-12T05:22:19;99614.13;;;12.78;100.00
58239;BME280;44037;55.638;37.356;2023-09-12T05:24:46;99616.69;;;12.89;100.00
58239;BME280;44037;55.638;37.356;2023-09-12T05:27:15;99614.06;;;13.01;100.00
58239;BME280;44037;55.638;37.356;2023-09-12T05:29:43;99622.75;;;13.11;100.00
58239;BME280;44037;55.638;37.356;2023-09-12T05:32:10;99616.66;;;13.20;100.00
58239;BME280;44037;55.638;37.356;2023-09-12T05:34:37;99622.69;;;13.31;100.00
58239;BME280;44037;55.638;37.356;2023-09-12T05:37:04;99623.56;;;13.40;100.00
58239;BME280;44037;55.638;37.356;2023-09-12T05:39:32;99633.94;;;13.49;100.00
58239;BME280;44037;55.638;37.356;2023-09-12T05:41:59;99629.59;;;13.56;100.00
58239;BME280;44037;55.638;37.356;2023-09-12T05:44:26;99628.69;;;13.61;100.00
58239;BME280;44037;55.638;37.356;2023-09-12T05:46:54;99633.91;;;13.71;100.00
58239;BME280;44037;55.638;37.356;2023-09-12T05:49:21;99626.03;;;13.81;100.00
58239;BME280;44037;55.638;37.356;2023-09-12T05:51:48;99631.22;;;13.88;100.00
58239;BME280;44037;55.638;37.356;2023-09-12T05:54:16;99631.19;;;13.94;100.00
58239;BME280;44037;55.638;37.356;2023-09-12T05:56:44;99632.91;;;14.01;100.00
58239;BME280;44037;55.638;37.356;2023-09-12T05:59:13;99633.75;;;14.05;100.00
58239;BME280;44037;55.638;37.356;2023-09-12T06:01:40;99636.31;;;14.11;100.00
58239;BME280;44037;55.638;37.356;2023-09-12T06:04:08;99638.00;;;14.20;100.00
58239;BME280;44037;55.638;37.356;2023-09-12T06:06:35;99628.38;;;14.33;100.00
58239;BME280;44037;55.638;37.356;2023-09-12T06:09:02;99628.28;;;14.45;100.00
58239;BME280;44037;55.638;37.356;2023-09-12T06:11:30;99636.88;;;14.59;100.00
58239;BME280;44037;55.638;37.356;2023-09-12T06:13:57;99633.34;;;14.70;100.00
58239;BME280;44037;55.638;37.356;2023-09-12T06:16:24;99635.94;;;14.73;100.00
58239;BME280;44037;55.638;37.356;2023-09-12T06:18:52;99639.41;;;14.73;100.00
58239;BME280;44037;55.638;37.356;2023-09-12T06:21:21;99644.59;;;14.78;100.00
58239;BME280;44037;55.638;37.356;2023-09-12T06:23:48;99641.97;;;14.80;100.00
58239;BME280;44037;55.638;37.356;2023-09-12T06:26:15;99651.50;;;14.84;100.00
58239;BME280;44037;55.638;37.356;2023-09-12T06:28:42;99651.44;;;14.92;100.00
58239;BME280;44037;55.638;37.356;2023-09-12T06:31:09;99652.22;;;15.00;100.00
58239;BME280;44037;55.638;37.356;2023-09-12T06:33:37;99653.94;;;15.02;100.00
58239;BME280;44037;55.638;37.356;2023-09-12T06:36:05;99657.41;;;15.06;100.00
58239;BME280;44037;55.638;37.356;2023-09-12T06:38:33;99653.00;;;15.11;100.00
58239;BME280;44037;55.638;37.356;2023-09-12T06:41:00;99646.88;;;15.15;100.00
58239;BME280;44037;55.638;37.356;2023-09-12T06:43:30;99650.28;;;15.22;100.00
58239;BME280;44037;55.638;37.356;2023-09-12T06:45:57;99647.63;;;15.27;100.00
58239;BME280;44037;55.638;37.356;2023-09-12T06:48:24;99638.00;;;15.32;100.00
58239;BME280;44037;55.638;37.356;2023-09-12T06:50:53;99645.78;;;15.36;100.00
58239;BME280;44037;55.638;37.356;2023-09-12T06:53:20;99644.84;;;15.42;100.00
58239;BME280;44037;55.638;37.356;2023-09-12T06:55:48;99641.34;;;15.46;100.00
58239;BME280;44037;55.638;37.356;2023-09-12T06:58:15;99651.75;;;15.49;100.00
58239;BME280;44037;55.638;37.356;2023-09-12T07:00:42;99647.38;;;15.53;100.00
58239;BME280;44037;55.638;37.356;2023-09-12T07:03:09;99643.00;;;15.55;100.00
58239;BME280;44037;55.638;37.356;2023-09-12T07:05:37;99651.63;;;15.62;100.00
58239;BME280;44037;55.638;37.356;2023-09-12T07:08:04;99656.69;;;15.74;100.00
58239;BME280;44037;55.638;37.356;2023-09-12T07:10:32;99648.75;;;15.82;100.00
58239;BME280;44037;55.638;37.356;2023-09-12T07:13:00;99651.38;;;15.84;100.00
58239;BME280;44037;55.638;37.356;2023-09-12T07:15:28;99651.38;;;15.87;100.00
58239;BME280;44037;55.638;37.356;2023-09-12T07:17:55;99660.03;;;15.89;100.00
58239;BME280;44037;55.638;37.356;2023-09-12T07:20:22;99655.66;;;15.91;100.00
58239;BME280;44037;55.638;37.356;2023-09-12T07:22:49;99647.75;;;15.95;100.00
58239;BME280;44037;55.638;37.356;2023-09-12T07:25:16;99654.63;;;16.01;100.00
58239;BME280;44037;55.638;37.356;2023-09-12T07:27:45;99652.00;;;16.06;100.00
58239;BME280;44037;55.638;37.356;2023-09-12T07:30:14;99651.03;;;16.11;100.00
58239;BME280;44037;55.638;37.356;2023-09-12T07:32:41;99659.69;;;16.13;100.00
58239;BME280;44037;55.638;37.356;2023-09-12T07:35:08;99656.16;;;16.18;100.00
58239;BME280;44037;55.638;37.356;2023-09-12T07:37:35;99661.34;;;16.24;100.00
58239;BME280;44037;55.638;37.356;2023-09-12T07:40:03;99656.88;;;16.31;100.00
58239;BME280;44037;55.638;37.356;2023-09-12T07:42:34;99656.84;;;16.32;100.00
58239;BME280;44037;55.638;37.356;2023-09-12T07:45:02;99648.97;;;16.35;100.00
58239;BME280;44037;55.638;37.356;2023-09-12T07:47:31;99650.59;;;16.42;100.00
58239;BME280;44037;55.638;37.356;2023-09-12T07:49:58;99642.59;;;16.53;100.00
58239;BME280;44037;55.638;37.356;2023-09-12T07:52:26;99646.00;;;16.60;100.00
58239;BME280;44037;55.638;37.356;2023-09-12T07:54:59;99648.56;;;16.63;100.00
58239;BME280;44037;55.638;37.356;2023-09-12T07:57:27;99651.16;;;16.65;100.00
58239;BME280;44037;55.638;37.356;2023-09-12T07:59:55;99645.94;;;16.62;100.00
58239;BME280;44037;55.638;37.356;2023-09-12T08:02:22;99645.03;;;16.64;100.00
58239;BME280;44037;55.638;37.356;2023-09-12T08:04:50;99645.78;;;16.71;100.00
58239;BME280;44037;55.638;37.356;2023-09-12T08:07:19;99648.25;;;16.82;100.00
58239;BME280;44037;55.638;37.356;2023-09-12T08:09:50;99642.97;;;16.85;100.00
58239;BME280;44037;55.638;37.356;2023-09-12T08:12:18;99650.78;;;16.86;100.00
58239;BME280;44037;55.638;37.356;2023-09-12T08:14:45;99644.72;;;16.86;100.00
58239;BME280;44037;55.638;37.356;2023-09-12T08:17:13;99650.78;;;16.88;100.00
58239;BME280;44037;55.638;37.356;2023-09-12T08:19:41;99646.34;;;16.92;100.00
58239;BME280;44037;55.638;37.356;2023-09-12T08:22:10;99641.91;;;16.98;100.00
58239;BME280;44037;55.638;37.356;2023-09-12T08:24:37;99644.31;;;17.11;100.00
58239;BME280;44037;55.638;37.356;2023-09-12T08:27:05;99648.50;;;17.21;100.00
58239;BME280;44037;55.638;37.356;2023-09-12T08:29:33;99648.44;;;17.23;100.00
58239;BME280;44037;55.638;37.356;2023-09-12T08:32:00;99650.22;;;17.22;100.00
58239;BME280;44037;55.638;37.356;2023-09-12T08:34:27;99641.44;;;17.25;100.00
58239;BME280;44037;55.638;37.356;2023-09-12T08:36:55;99638.72;;;17.29;100.00
58239;BME280;44037;55.638;37.356;2023-09-12T08:39:25;99639.53;;;17.33;100.00
58239;BME280;44037;55.638;37.356;2023-09-12T08:41:53;99632.50;;;17.35;100.00
58239;BME280;44037;55.638;37.356;2023-09-12T08:44:20;99635.97;;;17.37;98.81
58239;BME280;44037;55.638;37.356;2023-09-12T08:46:48;99634.25;;;17.36;98.59
58239;BME280;44037;55.638;37.356;2023-09-12T08:49:15;99632.41;;;17.41;98.54
58239;BME280;44037;55.638;37.356;2023-09-12T08:51:42;99628.78;;;17.48;98.37
58239;BME280;44037;55.638;37.356;2023-09-12T08:54:10;99628.63;;;17.58;96.83
58239;BME280;44037;55.638;37.356;2023-09-12T08:56:40;99634.69;;;17.58;94.39
58239;BME280;44037;55.638;37.356;2023-09-12T08:59:08;99625.06;;;17.60;93.92
58239;BME280;44037;55.638;37.356;2023-09-12T09:01:37;99622.41;;;17.62;94.05
58239;BME280;44037;55.638;37.356;2023-09-12T09:04:05;99625.81;;;17.67;94.00
58239;BME280;44037;55.638;37.356;2023-09-12T09:06:32;99629.22;;;17.71;93.83
58239;BME280;44037;55.638;37.356;2023-09-12T09:09:05;99624.72;;;17.77;93.90
58239;BME280;44037;55.638;37.356;2023-09-12T09:11:33;99616.72;;;17.84;94.07
58239;BME280;44037;55.638;37.356;2023-09-12T09:14:02;99621.84;;;17.90;93.50
58239;BME280;44037;55.638;37.356;2023-09-12T09:16:29;99622.63;;;17.95;92.81
58239;BME280;44037;55.638;37.356;2023-09-12T09:19:00;99627.78;;;17.98;91.92
58239;BME280;44037;55.638;37.356;2023-09-12T09:21:29;99623.38;;;18.02;89.95
58239;BME280;44037;55.638;37.356;2023-09-12T09:23:59;99625.06;;;18.03;89.72
58239;BME280;44037;55.638;37.356;2023-09-12T09:26:41;99618.88;;;18.07;89.67
58239;BME280;44037;55.638;37.356;2023-09-12T09:29:12;99621.38;;;18.11;87.61
58239;BME280;44037;55.638;37.356;2023-09-12T09:31:40;99625.69;;;18.16;86.41
58239;BME280;44037;55.638;37.356;2023-09-12T09:34:11;99621.28;;;18.18;84.35
58239;BME280;44037;55.638;37.356;2023-09-12T09:36:41;99620.31;;;18.20;82.30
58239;BME280;44037;55.638;37.356;2023-09-12T09:39:10;99618.59;;;18.19;81.86
58239;BME280;44037;55.638;37.356;2023-09-12T09:41:37;99617.72;;;18.20;81.11
58239;BME280;44037;55.638;37.356;2023-09-12T09:44:07;99615.97;;;18.19;81.38
58239;BME280;44037;55.638;37.356;2023-09-12T09:46:37;99620.28;;;18.22;81.25
58239;BME280;44037;55.638;37.356;2023-09-12T09:49:04;99614.19;;;18.21;79.77
58239;BME280;44037;55.638;37.356;2023-09-12T09:51:32;99617.72;;;18.20;78.82
58239;BME280;44037;55.638;37.356;2023-09-12T09:54:07;99617.66;;;18.22;79.37
58239;BME280;44037;55.638;37.356;2023-09-12T09:56:44;99614.97;;;18.25;79.29
58239;BME280;44037;55.638;37.356;2023-09-12T09:59:14;99610.56;;;18.27;78.14
58239;BME280;44037;55.638;37.356;2023-09-12T10:01:43;99610.50;;;18.30;78.26
58239;BME280;44037;55.638;37.356;2023-09-12T10:04:11;99611.34;;;18.32;77.53
58239;BME280;44037;55.638;37.356;2023-09-12T10:06:38;99613.06;;;18.32;77.32
58239;BME280;44037;55.638;37.356;2023-09-12T10:09:07;99614.81;;;18.33;77.50
58239;BME280;44037;55.638;37.356;2023-09-12T10:11:37;99610.31;;;18.38;76.68
58239;BME280;44037;55.638;37.356;2023-09-12T10:14:05;99607.59;;;18.41;76.50
58239;BME280;44037;55.638;37.356;2023-09-12T10:16:34;99611.03;;;18.45;75.71
58239;BME280;44037;55.638;37.356;2023-09-12T10:19:10;99607.31;;;18.53;76.06
58239;BME280;44037;55.638;37.356;2023-09-12T10:21:46;99613.28;;;18.60;74.90
58239;BME280;44037;55.638;37.356;2023-09-12T10:24:14;99613.22;;;18.63;72.86
58239;BME280;44037;55.638;37.356;2023-09-12T10:26:43;99617.56;;;18.64;71.38
58239;BME280;44037;55.638;37.356;2023-09-12T10:29:13;99608.00;;;18.62;71.69
58239;BME280;44037;55.638;37.356;2023-09-12T10:31:40;99608.78;;;18.65;72.09
58239;BME280;44037;55.638;37.356;2023-09-12T10:34:12;99608.63;;;18.71;71.95
58239;BME280;44037;55.638;37.356;2023-09-12T10:36:41;99614.69;;;18.75;71.65
58239;BME280;44037;55.638;37.356;2023-09-12T10:39:09;99615.47;;;18.79;71.43
58239;BME280;44037;55.638;37.356;2023-09-12T10:41:38;99619.69;;;18.84;71.60
58239;BME280;44037;55.638;37.356;2023-09-12T10:44:09;99611.63;;;18.92;71.58
58239;BME280;44037;55.638;37.356;2023-09-12T10:46:38;99617.59;;;18.99;71.51
58239;BME280;44037;55.638;37.356;2023-09-12T10:49:06;99611.34;;;19.05;71.77
58239;BME280;44037;55.638;37.356;2023-09-12T10:51:38;99608.50;;;19.12;70.61
58239;BME280;44037;55.638;37.356;2023-09-12T10:54:06;99603.06;;;19.18;70.24
58239;BME280;44037;55.638;37.356;2023-09-12T10:56:34;99603.84;;;19.22;70.18
58239;BME280;44037;55.638;37.356;2023-09-12T10:59:14;99602.22;;;19.18;69.29
58239;BME280;44037;55.638;37.356;2023-09-12T11:01:43;99602.94;;;19.23;68.02
58239;BME280;44037;55.638;37.356;2023-09-12T11:04:32;99602.84;;;19.28;68.19
58239;BME280;44037;55.638;37.356;2023-09-12T11:07:31;99592.16;;;19.34;67.99
58239;BME280;44037;55.638;37.356;2023-09-12T11:10:29;99596.47;;;19.37;66.95
58239;BME280;44037;55.638;37.356;2023-09-12T11:12:57;99592.91;;;19.39;66.89
58239;BME280;44037;55.638;37.356;2023-09-12T11:15:26;99599.06;;;19.38;66.50
58239;BME280;44037;55.638;37.356;2023-09-12T11:18:01;99593.00;;;19.34;67.36
58239;BME280;44037;55.638;37.356;2023-09-12T11:20:50;99592.28;;;19.29;68.24
58239;BME280;44037;55.638;37.356;2023-09-12T11:23:20;99586.06;;;19.33;67.79
58239;BME280;44037;55.638;37.356;2023-09-12T11:25:47;99588.56;;;19.37;67.10
58239;BME280;44037;55.638;37.356;2023-09-12T11:28:15;99583.31;;;19.37;66.29
58239;BME280;44037;55.638;37.356;2023-09-12T11:30:55;99586.91;;;19.34;65.77
58239;BME280;44037;55.638;37.356;2023-09-12T11:33:24;99588.56;;;19.37;65.59
58239;BME280;44037;55.638;37.356;2023-09-12T11:35:52;99580.84;;;19.32;66.18
58239;BME280;44037;55.638;37.356;2023-09-12T11:38:27;99586.75;;;19.40;65.84
58239;BME280;44037;55.638;37.356;2023-09-12T11:40:56;99583.81;;;19.51;66.49
58239;BME280;44037;55.638;37.356;2023-09-12T11:43:24;99574.78;;;19.60;64.86
58239;BME280;44037;55.638;37.356;2023-09-12T11:45:52;99577.34;;;19.63;64.56
58239;BME280;44037;55.638;37.356;2023-09-12T11:48:20;99577.16;;;19.69;64.53
58239;BME280;44037;55.638;37.356;2023-09-12T11:50:52;99578.78;;;19.73;64.57
58239;BME280;44037;55.638;37.356;2023-09-12T11:53:20;99588.41;;;19.73;63.59
58239;BME280;44037;55.638;37.356;2023-09-12T11:55:53;99584.88;;;19.75;62.94
58239;BME280;44037;55.638;37.356;2023-09-12T11:58:21;99578.19;;;19.63;62.82
58239;BME280;44037;55.638;37.356;2023-09-12T12:00:50;99574.06;;;19.55;63.17
58239;BME280;44037;55.638;37.356;2023-09-12T12:03:18;99576.47;;;19.62;63.18
58239;BME280;44037;55.638;37.356;2023-09-12T12:05:45;99578.09;;;19.67;63.20
58239;BME280;44037;55.638;37.356;2023-09-12T12:08:14;99574.50;;;19.69;63.00
58239;BME280;44037;55.638;37.356;2023-09-12T12:10:41;99572.56;;;19.76;62.39
58239;BME280;44037;55.638;37.356;2023-09-12T12:13:15;99578.59;;;19.79;62.68
58239;BME280;44037;55.638;37.356;2023-09-12T12:15:42;99573.16;;;19.86;62.11
58239;BME280;44037;55.638;37.356;2023-09-12T12:18:10;99567.72;;;19.92;61.58
58239;BME280;44037;55.638;37.356;2023-09-12T12:20:37;99571.03;;;19.99;61.72
58239;BME280;44037;55.638;37.356;2023-09-12T12:23:04;99572.63;;;20.04;60.76
58239;BME280;44037;55.638;37.356;2023-09-12T12:25:32;99576.06;;;20.06;60.86
58239;BME280;44037;55.638;37.356;2023-09-12T12:28:00;99570.81;;;20.06;60.98
58239;BME280;44037;55.638;37.356;2023-09-12T12:30:31;99576.94;;;20.07;60.79
58239;BME280;44037;55.638;37.356;2023-09-12T12:33:00;99567.28;;;20.07;60.73
58239;BME280;44037;55.638;37.356;2023-09-12T12:35:28;99563.94;;;20.02;61.01
58239;BME280;44037;55.638;37.356;2023-09-12T12:37:55;99570.19;;;19.98;61.13
58239;BME280;44037;55.638;37.356;2023-09-12T12:40:22;99561.50;;;19.96;61.82
58239;BME280;44037;55.638;37.356;2023-09-12T12:42:51;99565.94;;;19.94;61.67
58239;BME280;44037;55.638;37.356;2023-09-12T12:45:19;99560.81;;;19.89;61.72
58239;BME280;44037;55.638;37.356;2023-09-12T12:47:51;99568.00;;;19.83;61.98
58239;BME280;44037;55.638;37.356;2023-09-12T12:50:18;99562.81;;;19.79;62.18
58239;BME280;44037;55.638;37.356;2023-09-12T12:52:47;99562.81;;;19.79;62.25
58239;BME280;44037;55.638;37.356;2023-09-12T12:55:15;99560.31;;;19.76;61.87